Time;durP1;ratioP1;P1;durP2;ratioP2;P2;SDS_P1;SDS_P2;PMS_P1;PMS_P2;Temp;Humidity;BMP_temperature;BMP_pressure;BME280_temperature;BME280_humidity;BME280_pressure;Samples;Min_cycle;Max_cycle;Signal;HPM_P1;HPM_P2
2022/11/17 00:02:37;;;;;;;1.80;1.10;;;1.90;99.90;;;;;;4417454;28;659031;-63
2022/11/17 00:05:24;;;;;;;1.83;1.33;;;2.00;99.90;;;;;;4417237;28;657993;-63
2022/11/17 00:08:11;;;;;;;1.53;1.27;;;2.00;99.90;;;;;;4398431;28;657791;-63
2022/11/17 00:11:01;;;;;;;1.37;1.10;;;2.00;99.90;;;;;;4417121;28;657615;-63
2022/11/17 00:16:52;;;;;;;1.87;1.13;;;2.00;99.90;;;;;;4393559;28;658295;-63
2022/11/17 00:22:44;;;;;;;3.87;3.10;;;2.00;99.90;;;;;;4393882;28;657645;-64
2022/11/17 00:25:31;;;;;;;1.83;1.70;;;2.00;99.90;;;;;;4394397;28;657635;-64
2022/11/17 00:28:19;;;;;;;2.43;1.63;;;2.00;99.90;;;;;;4420255;28;658171;-63
2022/11/17 00:34:14;;;;;;;2.93;2.00;;;2.00;99.90;;;;;;4393314;28;658263;-63
2022/11/17 00:37:01;;;;;;;1.97;1.30;;;2.00;99.90;;;;;;4397845;28;658223;-63
2022/11/17 00:39:48;;;;;;;2.83;1.80;;;2.00;99.90;;;;;;4419234;28;658055;-64
2022/11/17 00:42:35;;;;;;;3.20;2.05;;;2.00;99.90;;;;;;4402108;28;658014;-65
2022/11/17 00:45:24;;;;;;;7.78;3.10;;;2.00;99.90;;;;;;4420739;28;658230;-63
2022/11/17 00:48:11;;;;;;;2.23;1.50;;;2.00;99.90;;;;;;4397573;28;657831;-63
2022/11/17 00:50:58;;;;;;;2.87;1.73;;;2.00;99.90;;;;;;4416337;28;658865;-64
2022/11/17 00:53:45;;;;;;;3.10;1.50;;;2.10;99.90;;;;;;4397138;28;658148;-65
2022/11/17 00:56:32;;;;;;;1.58;1.27;;;2.10;99.90;;;;;;4420248;28;658889;-63
2022/11/17 00:59:19;;;;;;;2.43;1.40;;;2.00;99.90;;;;;;4415370;28;657621;-63
2022/11/17 01:02:08;;;;;;;3.00;1.97;;;2.00;99.90;;;;;;4843984;28;657638;-64
2022/11/17 01:04:55;;;;;;;2.17;1.73;;;2.00;99.90;;;;;;4398368;28;658140;-65
2022/11/17 01:07:42;;;;;;;3.72;1.83;;;2.00;99.90;;;;;;4419419;28;658300;-63
2022/11/17 01:10:29;;;;;;;2.30;1.80;;;2.00;99.90;;;;;;4415031;28;658257;-64
2022/11/17 01:13:17;;;;;;;2.23;1.40;;;2.00;99.90;;;;;;4394316;28;657666;-64
2022/11/17 01:16:05;;;;;;;2.05;1.67;;;1.90;99.90;;;;;;4415068;28;657367;-64
2022/11/17 01:18:54;;;;;;;1.47;1.20;;;2.00;99.90;;;;;;4392490;28;658769;-63
2022/11/17 01:21:42;;;;;;;2.07;1.50;;;2.00;99.90;;;;;;4392061;28;657821;-64
2022/11/17 01:24:29;;;;;;;2.73;1.53;;;2.00;99.90;;;;;;4414961;28;657420;-63
2022/11/17 01:27:16;;;;;;;4.40;1.40;;;1.90;99.90;;;;;;4388364;28;657852;-64
2022/11/17 01:30:04;;;;;;;1.83;1.20;;;2.00;99.90;;;;;;4415262;28;658481;-63
2022/11/17 01:32:51;;;;;;;2.33;1.53;;;2.00;99.90;;;;;;4396025;28;657826;-63
2022/11/17 01:35:40;;;;;;;1.87;1.33;;;2.00;99.90;;;;;;4414689;28;657581;-64
2022/11/17 01:38:27;;;;;;;1.67;1.30;;;2.00;99.90;;;;;;4391750;28;658886;-64
2022/11/17 01:41:15;;;;;;;1.20;1.00;;;2.00;99.90;;;;;;4413312;28;657469;-64
2022/11/17 01:44:36;;;;;;;3.53;1.13;;;2.00;99.90;;;;;;4395789;28;658433;-64
2022/11/17 01:47:25;;;;;;;1.03;0.90;;;2.00;99.90;;;;;;4391887;28;658311;-64
2022/11/17 01:50:21;;;;;;;1.10;1.00;;;2.00;99.90;;;;;;4392007;28;658488;-64
2022/11/17 01:53:11;;;;;;;2.67;2.23;;;2.00;99.90;;;;;;4391607;28;657607;-63
2022/11/17 01:55:59;;;;;;;2.43;1.80;;;2.10;99.90;;;;;;4391662;28;658505;-63
2022/11/17 01:58:48;;;;;;;1.80;1.60;;;2.10;99.90;;;;;;4391534;28;657334;-64
2022/11/17 02:01:54;;;;;;;1.40;1.20;;;2.10;99.90;;;;;;4395550;28;657799;-64
2022/11/17 02:04:42;;;;;;;1.80;1.20;;;2.00;99.90;;;;;;4372727;28;658479;-64
2022/11/17 02:07:31;;;;;;;0.80;0.80;;;2.00;99.90;;;;;;4414126;28;657062;-64
2022/11/17 02:10:19;;;;;;;1.43;1.13;;;2.00;99.90;;;;;;4391289;28;658269;-64
2022/11/17 02:13:07;;;;;;;1.70;1.40;;;1.90;99.90;;;;;;4391684;28;658383;-64
2022/11/17 02:15:54;;;;;;;2.53;1.67;;;2.00;99.90;;;;;;4413340;28;657290;-64
2022/11/17 02:18:41;;;;;;;2.73;1.50;;;2.00;99.90;;;;;;4395319;28;657685;-64
2022/11/17 02:21:50;;;;;;;3.63;1.47;;;2.00;99.90;;;;;;4414360;28;658260;-64
2022/11/17 02:24:52;;;;;;;2.70;1.57;;;2.00;99.90;;;;;;4367499;28;658329;-64
2022/11/17 02:27:55;;;;;;;2.57;1.60;;;2.00;99.90;;;;;;4391278;28;657534;-64
2022/11/17 02:30:47;;;;;;;1.97;1.30;;;2.00;99.90;;;;;;4390724;28;657981;-63
2022/11/17 02:33:38;;;;;;;2.00;1.30;;;2.00;99.90;;;;;;4391132;28;658001;-64
2022/11/17 02:36:31;;;;;;;2.53;1.10;;;1.90;99.90;;;;;;4372266;28;657797;-64
2022/11/17 02:39:19;;;;;;;2.53;1.80;;;2.00;99.90;;;;;;4391076;28;658196;-64
2022/11/17 02:42:09;;;;;;;3.93;2.67;;;2.00;99.90;;;;;;4394847;28;657543;-64
2022/11/17 02:44:57;;;;;;;2.80;1.27;;;2.00;99.90;;;;;;4394999;28;657858;-64
2022/11/17 02:47:44;;;;;;;2.03;1.20;;;2.00;99.90;;;;;;4413832;28;657524;-64
2022/11/17 02:50:32;;;;;;;1.93;1.17;;;1.90;99.90;;;;;;4390955;28;658942;-63
2022/11/17 02:53:19;;;;;;;1.57;1.00;;;2.00;99.90;;;;;;4413995;28;657654;-64
2022/11/17 02:56:07;;;;;;;2.03;1.20;;;2.00;99.90;;;;;;4394901;28;657835;-64
2022/11/17 02:58:56;;;;;;;3.35;2.65;;;2.00;99.90;;;;;;4410704;28;658045;-64
2022/11/17 03:02:09;;;;;;;2.57;2.03;;;2.00;99.90;;;;;;4748623;28;658682;-64
2022/11/17 03:05:04;;;;;;;2.97;1.57;;;2.00;99.90;;;;;;4391043;28;658935;-64
2022/11/17 03:08:01;;;;;;;1.43;0.80;;;2.00;99.90;;;;;;4368085;28;658901;-64
2022/11/17 03:10:51;;;;;;;1.53;0.97;;;2.10;99.90;;;;;;4390957;28;657941;-64
2022/11/17 03:13:43;;;;;;;1.17;1.00;;;2.10;99.90;;;;;;4395106;28;657690;-64
2022/11/17 03:16:34;;;;;;;2.07;1.00;;;2.10;99.90;;;;;;4370465;28;657918;-65
2022/11/17 03:19:26;;;;;;;1.90;1.00;;;2.10;99.90;;;;;;4394867;28;658543;-64
2022/11/17 03:22:14;;;;;;;1.43;0.80;;;2.10;99.90;;;;;;4390998;28;658563;-63
2022/11/17 03:25:03;;;;;;;0.80;0.80;;;2.10;99.90;;;;;;4391061;28;659034;-63
2022/11/17 03:27:52;;;;;;;2.13;1.50;;;2.10;99.90;;;;;;4394371;28;657633;-65
2022/11/17 03:30:41;;;;;;;2.33;1.30;;;2.10;99.90;;;;;;4413389;28;657471;-64
2022/11/17 03:33:28;;;;;;;2.30;1.63;;;2.10;99.90;;;;;;4390442;28;658140;-64
2022/11/17 03:36:18;;;;;;;2.30;1.20;;;2.00;99.90;;;;;;4394537;28;657364;-65
2022/11/17 03:39:07;;;;;;;1.47;1.33;;;2.00;99.90;;;;;;4396456;28;657429;-65
2022/11/17 03:41:57;;;;;;;4.30;1.47;;;2.00;99.90;;;;;;4373754;28;1091290;-64
2022/11/17 03:44:45;;;;;;;2.00;1.37;;;2.00;99.90;;;;;;4389781;28;659311;-64
2022/11/17 03:47:33;;;;;;;1.83;1.20;;;2.00;99.90;;;;;;4389797;28;658297;-64
2022/11/17 03:50:22;;;;;;;2.30;1.17;;;2.10;99.90;;;;;;4399590;28;657427;-65
2022/11/17 03:53:11;;;;;;;3.60;1.60;;;2.10;99.90;;;;;;4411103;28;657637;-65
2022/11/17 03:56:02;;;;;;;2.00;1.40;;;2.10;99.90;;;;;;4413867;28;657675;-64
2022/11/17 03:58:52;;;;;;;1.50;1.17;;;2.10;99.90;;;;;;4390826;28;658302;-64
2022/11/17 04:01:39;;;;;;;1.27;1.10;;;2.10;99.90;;;;;;4391073;28;657703;-64
2022/11/17 04:05:04;;;;;;;1.17;1.07;;;2.10;99.90;;;;;;4395035;28;659125;-64
2022/11/17 04:07:34;;;;;;;3.93;1.83;;;2.00;99.90;;;;;;4394992;28;657267;-63
2022/11/17 04:10:24;;;;;;;2.03;1.60;;;2.10;99.90;;;;;;4394851;28;657414;-64
2022/11/17 04:16:16;;;;;;;2.80;1.87;;;2.00;99.90;;;;;;4387973;28;657649;-64
2022/11/17 04:19:03;;;;;;;1.47;1.13;;;2.00;99.90;;;;;;4416299;28;657924;-64
2022/11/17 04:21:50;;;;;;;3.27;1.53;;;2.00;99.90;;;;;;4396690;28;658179;-65
2022/11/17 04:24:37;;;;;;;1.70;1.60;;;2.10;99.90;;;;;;4413482;28;659129;-64
2022/11/17 04:30:30;;;;;;;2.43;1.57;;;2.10;99.90;;;;;;4394782;28;657485;-66
2022/11/17 04:33:17;;;;;;;2.17;1.53;;;2.00;99.90;;;;;;4417999;28;658234;-64
2022/11/17 04:36:06;;;;;;;1.10;1.00;;;2.10;99.90;;;;;;4413023;28;658257;-64
2022/11/17 04:38:54;;;;;;;2.63;1.30;;;2.10;99.90;;;;;;4391341;28;658891;-64
2022/11/17 04:42:02;;;;;;;4.33;2.17;;;2.10;99.90;;;;;;4397764;28;657653;-64
2022/11/17 04:44:50;;;;;;;4.77;2.63;;;2.10;99.90;;;;;;4393612;28;657478;-64
2022/11/17 04:47:37;;;;;;;2.40;1.70;;;2.10;99.90;;;;;;4398166;28;659297;-64
2022/11/17 04:50:24;;;;;;;2.87;1.90;;;2.10;99.90;;;;;;4416459;28;658053;-64
2022/11/17 04:53:11;;;;;;;2.13;1.47;;;2.10;99.90;;;;;;4398064;28;657649;-64
2022/11/17 04:55:59;;;;;;;1.93;1.57;;;2.10;99.90;;;;;;4416279;28;658290;-64
2022/11/17 04:58:46;;;;;;;3.10;1.50;;;2.10;99.90;;;;;;4393535;28;658168;-64
2022/11/17 05:01:35;;;;;;;2.33;1.10;;;2.10;99.90;;;;;;4736288;28;657941;-64
2022/11/17 05:07:27;;;;;;;3.00;1.10;;;2.10;99.90;;;;;;4369719;28;659247;-63
2022/11/17 05:10:14;;;;;;;1.83;1.13;;;2.10;99.90;;;;;;4415354;28;657606;-64
2022/11/17 05:19:13;;;;;;;2.20;1.63;;;2.00;99.90;;;;;;4394105;28;657413;-64
2022/11/17 05:22:01;;;;;;;4.63;2.20;;;2.10;99.90;;;;;;4396234;28;657809;-64
2022/11/17 05:24:47;;;;;;;1.77;1.20;;;2.10;99.90;;;;;;4419134;28;658366;-63
2022/11/17 05:27:34;;;;;;;1.30;1.10;;;2.10;99.90;;;;;;4413864;28;658071;-64
2022/11/17 05:30:21;;;;;;;2.47;1.47;;;2.00;99.90;;;;;;4396199;28;657830;-63
2022/11/17 05:33:08;;;;;;;1.35;1.15;;;2.00;99.90;;;;;;4414910;28;658759;-63
2022/11/17 05:35:56;;;;;;;3.23;1.93;;;2.00;99.90;;;;;;4390085;28;657403;-65
2022/11/17 05:38:44;;;;;;;4.90;2.40;;;2.10;99.90;;;;;;4415004;28;658280;-64
2022/11/17 05:41:31;;;;;;;5.97;2.50;;;2.00;99.90;;;;;;4395602;28;657641;-64
2022/11/17 05:44:18;;;;;;;4.30;2.10;;;2.00;99.90;;;;;;4415458;28;658526;-63
2022/11/17 05:47:05;;;;;;;4.53;2.50;;;2.00;99.90;;;;;;4396059;28;658268;-64
2022/11/17 05:49:52;;;;;;;3.40;2.00;;;1.90;99.90;;;;;;4419366;28;657280;-64
2022/11/17 05:52:41;;;;;;;3.40;2.10;;;1.90;99.90;;;;;;4415056;28;657516;-63
2022/11/17 05:55:28;;;;;;;2.80;2.00;;;1.90;99.90;;;;;;4392684;28;658112;-63
2022/11/17 05:58:17;;;;;;;4.47;2.03;;;1.90;99.90;;;;;;4407743;28;657796;-65
2022/11/17 06:01:04;;;;;;;2.63;1.63;;;1.90;99.90;;;;;;4415341;28;657398;-63
2022/11/17 06:03:55;;;;;;;2.50;1.43;;;1.90;99.90;;;;;;4396834;28;658516;-63
2022/11/17 06:06:43;;;;;;;5.07;1.80;;;1.90;99.90;;;;;;4392751;28;658317;-63
2022/11/17 06:09:33;;;;;;;2.30;1.50;;;1.90;99.90;;;;;;4409574;28;658982;-65
2022/11/17 06:12:20;;;;;;;3.57;2.30;;;1.90;99.90;;;;;;4396221;28;657528;-63
2022/11/17 06:15:08;;;;;;;2.57;1.90;;;1.90;99.90;;;;;;4415550;28;658929;-63
2022/11/17 06:17:56;;;;;;;3.05;1.98;;;1.80;99.90;;;;;;4395908;28;658615;-64
2022/11/17 06:20:45;;;;;;;2.30;1.53;;;1.90;99.90;;;;;;4415183;28;658184;-63
2022/11/17 06:23:32;;;;;;;1.87;1.30;;;1.80;99.90;;;;;;4392285;28;659912;-63
2022/11/17 06:26:21;;;;;;;6.07;2.10;;;1.80;99.90;;;;;;4415272;28;657678;-63
2022/11/17 06:29:08;;;;;;;7.10;4.10;;;1.90;99.90;;;;;;4387048;28;658587;-63
2022/11/17 06:31:55;;;;;;;2.70;1.70;;;1.90;99.90;;;;;;4400198;28;657641;-64
2022/11/17 06:34:43;;;;;;;7.87;2.70;;;1.90;99.90;;;;;;4415106;28;658587;-63
2022/11/17 06:37:30;;;;;;;4.57;2.40;;;1.80;99.90;;;;;;4403944;28;657788;-64
2022/11/17 06:40:18;;;;;;;4.40;1.83;;;1.80;99.90;;;;;;4414708;28;659270;-63
2022/11/17 06:43:08;;;;;;;3.40;1.77;;;1.80;99.90;;;;;;4408757;28;657756;-64
2022/11/17 06:45:55;;;;;;;3.38;1.60;;;1.80;99.90;;;;;;4395800;28;658433;-65
2022/11/17 06:48:42;;;;;;;1.83;1.35;;;1.70;99.90;;;;;;4418892;28;658167;-63
2022/11/17 06:51:29;;;;;;;2.60;1.53;;;1.70;99.90;;;;;;4414540;28;657831;-63
2022/11/17 06:54:16;;;;;;;3.33;2.00;;;1.70;99.90;;;;;;4395751;28;658572;-63
2022/11/17 06:57:03;;;;;;;2.03;1.70;;;1.60;99.90;;;;;;4414371;28;658356;-63
2022/11/17 06:59:52;;;;;;;3.00;1.90;;;1.60;99.90;;;;;;4395773;28;657510;-64
2022/11/17 07:02:39;;;;;;;2.97;1.83;;;1.50;99.90;;;;;;4414226;28;658358;-63
2022/11/17 07:05:26;;;;;;;3.10;1.83;;;1.50;99.90;;;;;;4395851;28;657565;-63
2022/11/17 07:08:13;;;;;;;4.87;2.50;;;1.50;99.90;;;;;;4414246;28;658895;-63
2022/11/17 07:11:03;;;;;;;3.43;1.63;;;1.50;99.90;;;;;;4395618;28;657903;-64
2022/11/17 07:13:50;;;;;;;3.97;2.00;;;1.60;99.90;;;;;;4395660;28;657547;-63
2022/11/17 07:16:41;;;;;;;2.47;1.90;;;1.60;99.90;;;;;;4414053;28;658441;-63
2022/11/17 07:19:28;;;;;;;3.37;1.97;;;1.60;99.90;;;;;;4391382;28;658539;-63
2022/11/17 07:22:15;;;;;;;3.47;2.00;;;1.60;99.90;;;;;;4396058;28;657959;-65
2022/11/17 07:25:02;;;;;;;4.05;2.28;;;1.70;99.90;;;;;;4417889;28;657397;-63
2022/11/17 07:27:50;;;;;;;3.77;1.80;;;1.60;99.90;;;;;;4414387;28;657374;-63
2022/11/17 07:30:37;;;;;;;3.80;1.90;;;1.70;99.90;;;;;;4395719;28;658155;-63
2022/11/17 07:33:26;;;;;;;5.50;1.87;;;1.80;99.90;;;;;;4414326;28;658192;-63
2022/11/17 07:36:14;;;;;;;10.23;4.10;;;1.80;99.90;;;;;;4386403;28;658040;-63
2022/11/17 07:39:01;;;;;;;6.53;3.35;;;1.80;99.90;;;;;;4393983;28;658915;-63
2022/11/17 07:41:48;;;;;;;5.00;3.03;;;1.80;99.90;;;;;;4413877;28;659106;-63
2022/11/17 07:44:35;;;;;;;3.27;2.20;;;1.80;99.90;;;;;;4395181;28;658232;-64
2022/11/17 07:47:22;;;;;;;6.90;3.30;;;1.80;99.90;;;;;;4414125;28;659280;-63
2022/11/17 07:50:11;;;;;;;6.77;3.30;;;1.70;99.90;;;;;;4413915;28;657419;-63
2022/11/17 07:52:58;;;;;;;10.15;4.07;;;1.70;99.90;;;;;;4391221;28;658907;-63
2022/11/17 07:55:45;;;;;;;7.17;2.40;;;1.70;99.90;;;;;;4394141;28;659134;-64
2022/11/17 07:58:32;;;;;;;5.33;2.50;;;1.80;99.90;;;;;;4413988;28;659399;-63
2022/11/17 08:01:19;;;;;;;4.27;1.90;;;1.80;99.90;;;;;;4418172;28;658467;-63
2022/11/17 08:04:06;;;;;;;5.70;2.90;;;1.80;99.90;;;;;;4395271;28;658144;-63
2022/11/17 08:06:55;;;;;;;9.87;4.50;;;1.90;99.90;;;;;;4413993;28;657891;-64
2022/11/17 08:09:42;;;;;;;5.53;2.67;;;1.90;99.90;;;;;;4390961;28;658107;-63
2022/11/17 08:12:29;;;;;;;3.97;2.57;;;2.00;99.90;;;;;;4413716;28;657218;-63
2022/11/17 08:15:16;;;;;;;3.53;2.40;;;2.00;99.90;;;;;;4397739;28;657378;-63
2022/11/17 08:18:05;;;;;;;2.80;1.60;;;2.10;99.90;;;;;;4417257;28;657661;-64
2022/11/17 08:20:52;;;;;;;4.83;2.10;;;2.10;99.90;;;;;;4394280;28;659544;-63
2022/11/17 08:23:40;;;;;;;7.33;3.33;;;2.10;99.90;;;;;;4417290;28;657895;-63
2022/11/17 08:26:27;;;;;;;9.03;3.03;;;2.10;99.90;;;;;;4398553;28;658417;-62
2022/11/17 08:29:14;;;;;;;2.47;1.87;;;2.20;99.90;;;;;;4417021;28;657840;-63
2022/11/17 08:32:01;;;;;;;5.40;2.10;;;2.20;99.90;;;;;;4394090;28;658881;-63
2022/11/17 08:34:48;;;;;;;4.60;2.10;;;2.30;99.90;;;;;;4416848;28;658426;-63
2022/11/17 08:37:35;;;;;;;3.17;1.90;;;2.20;99.90;;;;;;4397918;28;657456;-64
2022/11/17 08:40:25;;;;;;;8.00;2.10;;;2.20;99.90;;;;;;4416902;28;659709;-64
2022/11/17 08:43:12;;;;;;;2.57;1.70;;;2.30;99.90;;;;;;4393747;28;658987;-64
2022/11/17 08:46:01;;;;;;;1.97;1.50;;;2.30;99.90;;;;;;4416619;28;657264;-63
2022/11/17 08:48:48;;;;;;;3.60;2.20;;;2.30;99.90;;;;;;4393508;28;658444;-63
2022/11/17 08:51:35;;;;;;;6.15;3.17;;;2.20;99.90;;;;;;4402453;28;658628;-65
2022/11/17 08:54:22;;;;;;;6.83;3.20;;;2.20;99.90;;;;;;4420931;28;659060;-63
2022/11/17 08:57:11;;;;;;;8.17;3.87;;;2.10;99.90;;;;;;4416332;28;658195;-63
2022/11/17 08:59:58;;;;;;;4.20;2.30;;;2.00;99.90;;;;;;4387167;28;658461;-63
2022/11/17 09:02:45;;;;;;;4.13;2.87;;;2.10;99.90;;;;;;4407136;28;657547;-64
2022/11/17 09:05:34;;;;;;;2.77;1.87;;;2.10;99.90;;;;;;4416821;28;658763;-63
2022/11/17 09:08:21;;;;;;;4.80;2.97;;;2.00;99.90;;;;;;4394499;28;657569;-63
2022/11/17 09:11:10;;;;;;;7.40;2.63;;;2.00;99.90;;;;;;4419305;28;658169;-63
2022/11/17 09:13:58;;;;;;;7.70;3.07;;;2.00;99.90;;;;;;4393652;28;659077;-63
2022/11/17 09:16:45;;;;;;;7.70;2.77;;;2.00;99.90;;;;;;4397485;28;657187;-63
2022/11/17 09:19:32;;;;;;;4.50;2.80;;;1.90;99.90;;;;;;4416175;28;658746;-64
2022/11/17 09:22:20;;;;;;;5.93;2.70;;;2.00;99.90;;;;;;4416277;28;657755;-63
2022/11/17 09:25:07;;;;;;;8.23;4.87;;;2.00;99.90;;;;;;4397295;28;658109;-63
2022/11/17 09:27:54;;;;;;;6.47;3.47;;;2.00;99.90;;;;;;4416043;28;657734;-63
2022/11/17 09:30:43;;;;;;;5.27;2.70;;;2.00;99.90;;;;;;4393137;28;659219;-63
2022/11/17 09:33:30;;;;;;;9.93;5.60;;;2.00;99.90;;;;;;4405423;28;658050;-65
2022/11/17 09:36:17;;;;;;;9.07;4.60;;;2.10;99.90;;;;;;4419801;28;658612;-63
2022/11/17 09:39:04;;;;;;;9.07;4.37;;;2.20;99.90;;;;;;4415816;28;657216;-63
2022/11/17 09:41:52;;;;;;;5.70;3.20;;;2.20;99.90;;;;;;4397107;28;658354;-63
2022/11/17 09:44:40;;;;;;;8.57;4.20;;;2.30;99.90;;;;;;4414089;28;658075;-63
2022/11/17 09:47:32;;;;;;;9.30;4.60;;;2.20;99.90;;;;;;4397048;28;658699;-63
2022/11/17 09:50:22;;;;;;;6.37;3.47;;;2.20;99.90;;;;;;4392585;28;657632;-63
2022/11/17 09:53:12;;;;;;;6.13;3.10;;;2.30;99.90;;;;;;4392870;28;658231;-63
2022/11/17 09:56:02;;;;;;;4.07;2.53;;;2.20;99.90;;;;;;4392753;28;658023;-63
2022/11/17 09:58:51;;;;;;;9.87;3.87;;;2.20;99.90;;;;;;4387873;28;658474;-63
2022/11/17 10:01:38;;;;;;;6.87;3.90;;;2.20;99.90;;;;;;4395762;28;657965;-63
2022/11/17 10:04:27;;;;;;;6.70;3.47;;;2.20;99.90;;;;;;4406086;28;657822;-64
2022/11/17 10:07:14;;;;;;;7.20;3.80;;;2.20;99.90;;;;;;4414499;28;657789;-63
2022/11/17 10:10:01;;;;;;;5.73;2.97;;;2.20;99.90;;;;;;4395584;28;657816;-63
2022/11/17 10:12:51;;;;;;;3.13;1.90;;;2.20;99.90;;;;;;4414325;28;658769;-63
2022/11/17 10:15:42;;;;;;;3.13;1.87;;;2.20;99.90;;;;;;4391412;28;658246;-63
2022/11/17 10:18:29;;;;;;;9.17;5.63;;;2.20;99.90;;;;;;4391557;28;658288;-63
2022/11/17 10:21:18;;;;;;;3.17;2.10;;;2.20;99.90;;;;;;4391798;28;657528;-63
2022/11/17 10:24:06;;;;;;;4.53;2.13;;;2.10;99.90;;;;;;4395366;28;657515;-65
2022/11/17 10:26:53;;;;;;;5.13;2.83;;;2.10;99.90;;;;;;4413892;28;659170;-63
2022/11/17 10:29:40;;;;;;;11.80;3.30;;;2.20;99.90;;;;;;4395946;28;657668;-65
2022/11/17 10:32:27;;;;;;;9.88;3.90;;;2.20;99.90;;;;;;4417247;28;659264;-63
2022/11/17 10:35:15;;;;;;;7.63;3.20;;;2.30;99.90;;;;;;4413911;28;657468;-63
2022/11/17 10:38:05;;;;;;;6.90;3.60;;;2.40;99.90;;;;;;4390440;28;659516;-63
2022/11/17 10:40:52;;;;;;;4.23;2.77;;;2.40;99.90;;;;;;4390922;28;659108;-63
2022/11/17 10:43:41;;;;;;;9.30;3.30;;;2.30;99.90;;;;;;4413812;28;658296;-63
2022/11/17 10:46:28;;;;;;;9.57;4.00;;;2.30;99.90;;;;;;4390864;28;658801;-63
2022/11/17 10:49:23;;;;;;;5.43;3.00;;;2.20;99.90;;;;;;4394779;28;657627;-65
2022/11/17 10:52:15;;;;;;;5.93;3.47;;;2.10;99.90;;;;;;4370728;28;658166;-64
2022/11/17 10:55:20;;;;;;;9.07;4.40;;;2.10;99.90;;;;;;4390697;28;659737;-63
2022/11/17 10:58:16;;;;;;;10.90;5.60;;;2.20;99.90;;;;;;4368078;28;659001;-63
2022/11/17 11:01:03;;;;;;;8.83;4.27;;;2.20;99.90;;;;;;4597520;28;659339;-63
2022/11/17 11:03:50;;;;;;;29.60;12.27;;;2.20;99.90;;;;;;4656020;28;533987;-64
2022/11/17 11:06:37;;;;;;;21.20;8.73;;;2.20;99.90;;;;;;4414805;28;659732;-63
2022/11/17 11:09:24;;;;;;;21.43;9.03;;;2.10;99.90;;;;;;4412080;28;659158;-64
2022/11/17 11:12:15;;;;;;;24.30;8.63;;;2.00;99.90;;;;;;4389537;28;658684;-63
2022/11/17 11:15:02;;;;;;;21.47;8.20;;;2.00;99.90;;;;;;4389599;28;660380;-63
2022/11/17 11:17:49;;;;;;;9.33;4.63;;;2.00;99.90;;;;;;4411628;28;658976;-63
2022/11/17 11:20:40;;;;;;;28.50;9.67;;;2.00;99.90;;;;;;4390572;28;658705;-63
2022/11/17 11:23:35;;;;;;;13.73;5.23;;;2.00;99.90;;;;;;4389393;28;660081;-63
2022/11/17 11:26:35;;;;;;;13.83;5.57;;;1.90;99.90;;;;;;4393382;28;659001;-63
2022/11/17 11:29:28;;;;;;;6.20;3.30;;;1.90;99.90;;;;;;4389574;28;658713;-63
2022/11/17 11:32:20;;;;;;;11.50;5.33;;;1.90;99.90;;;;;;4371824;28;657617;-64
2022/11/17 11:35:55;;;;;;;9.33;4.47;;;1.90;99.90;;;;;;4392799;28;659324;-63
2022/11/17 11:38:50;;;;;;;9.07;5.43;;;1.90;99.90;;;;;;4367139;28;657781;-64
2022/11/17 11:41:53;;;;;;;8.83;4.43;;;1.90;99.90;;;;;;4370783;28;658497;-63
2022/11/17 11:44:58;;;;;;;8.67;4.57;;;2.00;99.90;;;;;;4371341;28;657886;-64
2022/11/17 11:47:58;;;;;;;10.13;4.95;;;1.90;99.90;;;;;;4394041;28;658391;-65
2022/11/17 11:50:53;;;;;;;9.73;4.63;;;1.80;99.90;;;;;;4373846;28;659215;-64
2022/11/17 11:53:44;;;;;;;8.57;4.50;;;1.80;99.90;;;;;;4379612;28;657603;-65
2022/11/17 11:56:33;;;;;;;13.53;6.00;;;1.80;99.90;;;;;;4397618;28;657431;-63
2022/11/17 11:59:21;;;;;;;7.27;4.33;;;1.80;99.90;;;;;;4398946;28;659407;-64
2022/11/17 12:02:19;;;;;;;8.47;4.47;;;1.80;99.90;;;;;;4416397;28;658440;-63
2022/11/17 12:05:15;;;;;;;9.57;4.57;;;1.70;99.90;;;;;;4374432;28;658674;-64
2022/11/17 12:08:06;;;;;;;10.73;4.87;;;1.70;99.90;;;;;;4370710;28;658083;-63
2022/11/17 12:10:54;;;;;;;5.10;2.97;;;1.70;99.90;;;;;;4392658;28;659178;-63
2022/11/17 12:13:41;;;;;;;5.40;2.93;;;1.70;99.90;;;;;;4397340;28;657267;-64
2022/11/17 12:16:29;;;;;;;6.73;4.03;;;1.80;99.90;;;;;;4416233;28;659095;-63
2022/11/17 12:19:50;;;;;;;7.37;4.20;;;1.80;99.90;;;;;;4397255;28;657815;-63
2022/11/17 12:22:54;;;;;;;6.67;3.90;;;1.90;99.90;;;;;;4370383;28;658846;-63
2022/11/17 12:25:45;;;;;;;8.40;4.07;;;1.90;99.90;;;;;;4370302;28;659155;-63
2022/11/17 12:28:34;;;;;;;12.07;5.40;;;1.90;99.90;;;;;;4392383;28;659408;-63
2022/11/17 12:31:42;;;;;;;8.87;5.40;;;1.90;99.90;;;;;;4395997;28;658714;-63
2022/11/17 12:34:31;;;;;;;11.13;6.33;;;1.80;99.90;;;;;;4393013;28;657524;-63
2022/11/17 12:37:25;;;;;;;8.97;5.20;;;1.80;99.90;;;;;;4392091;28;659296;-63
2022/11/17 12:40:42;;;;;;;13.63;6.73;;;1.70;99.90;;;;;;4370102;28;659648;-64
2022/11/17 12:43:29;;;;;;;9.67;5.37;;;1.70;99.90;;;;;;4391798;28;658658;-63
2022/11/17 12:46:26;;;;;;;8.50;4.20;;;1.60;99.90;;;;;;4397188;28;657465;-63
2022/11/17 12:49:16;;;;;;;9.10;4.93;;;1.60;99.90;;;;;;4392873;28;658487;-63
2022/11/17 12:52:04;;;;;;;12.57;5.72;;;1.60;99.90;;;;;;4392839;28;658902;-63
2022/11/17 12:54:54;;;;;;;14.97;7.00;;;1.70;99.90;;;;;;4395861;28;658653;-63
2022/11/17 12:57:41;;;;;;;12.03;6.00;;;1.60;99.90;;;;;;4391562;28;658734;-63
2022/11/17 13:00:28;;;;;;;8.70;4.93;;;1.70;99.90;;;;;;4489736;28;659935;-63
2022/11/17 13:03:16;;;;;;;17.33;10.67;;;1.70;99.90;;;;;;4790549;28;534148;-63
2022/11/17 13:06:07;;;;;;;10.50;6.20;;;1.70;99.90;;;;;;4413144;28;660745;-63
2022/11/17 13:08:55;;;;;;;22.00;10.20;;;1.70;99.90;;;;;;4391469;28;658479;-63
2022/11/17 13:11:43;;;;;;;9.87;5.40;;;1.60;99.90;;;;;;4394263;28;660389;-63
2022/11/17 13:14:31;;;;;;;20.07;8.80;;;1.50;99.90;;;;;;4396366;28;658034;-63
2022/11/17 13:17:18;;;;;;;13.93;6.73;;;1.60;99.90;;;;;;4413971;28;659967;-63
2022/11/17 13:20:15;;;;;;;15.83;7.53;;;1.60;99.90;;;;;;4395033;28;658756;-64
2022/11/17 13:23:05;;;;;;;13.55;7.50;;;1.50;99.90;;;;;;4365348;28;659375;-63
2022/11/17 13:26:08;;;;;;;16.50;8.47;;;1.50;99.90;;;;;;4390591;28;660654;-63
2022/11/17 13:29:07;;;;;;;26.87;11.73;;;1.50;99.90;;;;;;4381927;28;658618;-65
2022/11/17 13:32:17;;;;;;;22.60;10.37;;;1.50;99.90;;;;;;4389713;28;660620;-63
2022/11/17 13:35:17;;;;;;;11.87;6.33;;;1.50;99.90;;;;;;4389851;28;660607;-63
2022/11/17 13:38:05;;;;;;;14.80;7.23;;;1.50;99.90;;;;;;4390981;28;658885;-64
2022/11/17 13:40:53;;;;;;;13.53;7.13;;;1.50;99.90;;;;;;4390110;28;660392;-63
2022/11/17 13:43:40;;;;;;;35.03;17.53;;;1.50;99.90;;;;;;4390958;28;659235;-65
2022/11/17 13:46:28;;;;;;;9.38;5.30;;;1.40;99.90;;;;;;4400012;28;659891;-63
2022/11/17 13:49:34;;;;;;;16.37;7.37;;;1.40;99.90;;;;;;4379653;28;657495;-64
2022/11/17 13:52:32;;;;;;;14.27;7.50;;;1.40;99.90;;;;;;4351499;28;659171;-63
2022/11/17 13:55:19;;;;;;;24.50;10.63;;;1.30;99.90;;;;;;4374371;28;658681;-64
2022/11/17 13:58:07;;;;;;;20.27;8.63;;;1.30;99.90;;;;;;4368995;28;661165;-63
2022/11/17 14:00:56;;;;;;;21.73;9.03;;;1.30;99.90;;;;;;4377201;28;658429;-64
2022/11/17 14:03:45;;;;;;;23.87;10.40;;;1.30;99.90;;;;;;4396090;28;659246;-63
2022/11/17 14:06:56;;;;;;;14.33;8.07;;;1.30;99.90;;;;;;4372722;28;661477;-63
2022/11/17 14:09:43;;;;;;;16.40;8.17;;;1.30;99.90;;;;;;4373984;28;659830;-63
2022/11/17 14:12:30;;;;;;;18.00;7.27;;;1.30;99.90;;;;;;4377014;28;658509;-64
2022/11/17 14:15:21;;;;;;;29.23;10.47;;;1.30;99.90;;;;;;4396615;28;660084;-63
2022/11/17 14:18:20;;;;;;;30.53;15.83;;;1.30;99.90;;;;;;4368479;28;660137;-63
2022/11/17 14:21:10;;;;;;;9.10;6.10;;;1.30;99.90;;;;;;4350988;28;660866;-63
2022/11/17 14:24:05;;;;;;;12.57;6.87;;;1.20;99.90;;;;;;4376338;28;658862;-63
2022/11/17 14:26:52;;;;;;;21.03;9.67;;;1.20;99.90;;;;;;4348848;28;659371;-63
2022/11/17 14:29:40;;;;;;;16.80;8.33;;;1.20;99.90;;;;;;4393630;28;658560;-64
2022/11/17 14:32:27;;;;;;;17.73;9.02;;;1.20;99.90;;;;;;4401093;28;658474;-63
2022/11/17 14:35:14;;;;;;;20.50;7.80;;;1.20;99.90;;;;;;4397249;28;659878;-63
2022/11/17 14:38:03;;;;;;;19.77;9.57;;;1.10;99.90;;;;;;4378937;28;658711;-63
2022/11/17 14:40:51;;;;;;;14.93;7.90;;;1.10;99.90;;;;;;4382408;28;658833;-65
2022/11/17 14:43:38;;;;;;;11.80;5.70;;;1.10;99.90;;;;;;4413205;28;660228;-63
2022/11/17 14:46:26;;;;;;;11.23;6.93;;;1.10;99.90;;;;;;4394516;28;658817;-64
2022/11/17 14:49:13;;;;;;;12.33;6.63;;;1.10;99.90;;;;;;4416100;28;659227;-63
2022/11/17 14:52:01;;;;;;;13.07;7.35;;;1.00;99.90;;;;;;4399253;28;658923;-64
2022/11/17 14:54:50;;;;;;;15.33;7.70;;;1.00;99.90;;;;;;4413039;28;659915;-63
2022/11/17 14:57:37;;;;;;;19.53;7.53;;;1.00;99.90;;;;;;4390644;28;660439;-63
2022/11/17 15:00:24;;;;;;;18.50;8.03;;;1.00;99.90;;;;;;4470344;28;659448;-63
2022/11/17 15:03:11;;;;;;;20.87;9.70;;;1.00;99.90;;;;;;4805698;28;535264;-64
2022/11/17 15:05:58;;;;;;;19.83;10.17;;;1.00;99.90;;;;;;4412770;28;660202;-63
2022/11/17 15:08:45;;;;;;;28.73;12.77;;;1.00;99.90;;;;;;4392330;28;660166;-65